sensor_id;sensor_type;location;lat;lon;timestamp;pressure;altitude;pressure_sealevel;temperature;humidity
15880;BME280;61999;51.514;14.614;2022-12-07T00:01:45;99718.72;;;-4.92;76.94
15880;BME280;61999;51.514;14.614;2022-12-07T00:04:16;99714.38;;;-5.34;77.40
15880;BME280;61999;51.514;14.614;2022-12-07T00:06:50;99716.78;;;-5.69;79.04
15880;BME280;61999;51.514;14.614;2022-12-07T00:09:20;99706.44;;;-5.65;80.07
15880;BME280;61999;51.514;14.614;2022-12-07T00:11:50;99711.69;;;-6.25;81.56
15880;BME280;61999;51.514;14.614;2022-12-07T00:14:20;99714.50;;;-6.41;83.03
15880;BME280;61999;51.514;14.614;2022-12-07T00:16:50;99708.59;;;-6.46;83.69
15880;BME280;61999;51.514;14.614;2022-12-07T00:19:20;99707.03;;;-6.54;84.21
15880;BME280;61999;51.514;14.614;2022-12-07T00:21:48;99707.44;;;-6.25;84.54
15880;BME280;61999;51.514;14.614;2022-12-07T00:24:17;99703.94;;;-6.19;83.95
15880;BME280;61999;51.514;14.614;2022-12-07T00:26:45;99706.13;;;-6.50;84.78
15880;BME280;61999;51.514;14.614;2022-12-07T00:29:17;99693.00;;;-6.32;84.28
15880;BME280;61999;51.514;14.614;2022-12-07T00:31:46;99699.00;;;-5.80;84.40
15880;BME280;61999;51.514;14.614;2022-12-07T00:38:22;99695.56;;;-6.32;85.23
15880;BME280;61999;51.514;14.614;2022-12-07T00:40:55;99692.50;;;-6.01;84.61
15880;BME280;61999;51.514;14.614;2022-12-07T00:43:24;99686.03;;;-6.24;85.01
15880;BME280;61999;51.514;14.614;2022-12-07T00:45:52;99691.69;;;-6.02;84.62
15880;BME280;61999;51.514;14.614;2022-12-07T00:48:22;99688.34;;;-6.08;84.57
15880;BME280;61999;51.514;14.614;2022-12-07T00:50:50;99686.72;;;-6.12;85.00
15880;BME280;61999;51.514;14.614;2022-12-07T00:53:19;99679.88;;;-5.65;84.76
15880;BME280;61999;51.514;14.614;2022-12-07T00:55:48;99687.72;;;-6.21;85.49
15880;BME280;61999;51.514;14.614;2022-12-07T00:58:16;99688.13;;;-6.47;86.11
15880;BME280;61999;51.514;14.614;2022-12-07T01:00:44;99691.38;;;-6.36;87.12
15880;BME280;61999;51.514;14.614;2022-12-07T01:03:14;99691.63;;;-6.54;87.99
15880;BME280;61999;51.514;14.614;2022-12-07T01:05:50;99695.88;;;-6.50;88.62
15880;BME280;61999;51.514;14.614;2022-12-07T01:08:19;99696.66;;;-6.48;89.34
15880;BME280;61999;51.514;14.614;2022-12-07T01:10:49;99696.31;;;-6.24;89.48
15880;BME280;61999;51.514;14.614;2022-12-07T01:13:17;99694.34;;;-6.09;89.06
15880;BME280;61999;51.514;14.614;2022-12-07T01:15:45;99702.44;;;-5.83;88.84
15880;BME280;61999;51.514;14.614;2022-12-07T01:18:13;99691.84;;;-6.12;88.70
15880;BME280;61999;51.514;14.614;2022-12-07T01:20:41;99690.72;;;-5.96;87.85
15880;BME280;61999;51.514;14.614;2022-12-07T01:23:09;99680.81;;;-5.68;87.47
15880;BME280;61999;51.514;14.614;2022-12-07T01:25:37;99674.78;;;-4.82;86.30
15880;BME280;61999;51.514;14.614;2022-12-07T01:28:07;99678.63;;;-5.88;86.07
15880;BME280;61999;51.514;14.614;2022-12-07T01:30:35;99678.31;;;-5.73;85.85
15880;BME280;61999;51.514;14.614;2022-12-07T01:33:03;99675.47;;;-5.57;86.18
15880;BME280;61999;51.514;14.614;2022-12-07T01:35:34;99686.75;;;-5.64;85.12
15880;BME280;61999;51.514;14.614;2022-12-07T01:38:02;99679.38;;;-5.38;84.46
15880;BME280;61999;51.514;14.614;2022-12-07T01:40:30;99687.84;;;-5.33;84.38
15880;BME280;61999;51.514;14.614;2022-12-07T01:42:58;99678.09;;;-4.76;83.26
15880;BME280;61999;51.514;14.614;2022-12-07T01:45:45;99666.84;;;-5.11;81.34
15880;BME280;61999;51.514;14.614;2022-12-07T01:48:18;99665.44;;;-4.48;79.84
15880;BME280;61999;51.514;14.614;2022-12-07T01:50:51;99656.88;;;-4.49;78.02
15880;BME280;61999;51.514;14.614;2022-12-07T01:53:24;99661.81;;;-4.77;77.93
15880;BME280;61999;51.514;14.614;2022-12-07T01:55:55;99665.72;;;-5.40;78.63
15880;BME280;61999;51.514;14.614;2022-12-07T01:58:25;99664.69;;;-5.31;79.16
15880;BME280;61999;51.514;14.614;2022-12-07T02:00:54;99648.88;;;-4.37;78.02
15880;BME280;61999;51.514;14.614;2022-12-07T02:03:30;99652.13;;;-4.66;77.02
15880;BME280;61999;51.514;14.614;2022-12-07T02:06:00;99664.00;;;-4.60;76.16
15880;BME280;61999;51.514;14.614;2022-12-07T02:08:28;99662.06;;;-4.50;74.93
15880;BME280;61999;51.514;14.614;2022-12-07T02:10:56;99658.28;;;-4.00;73.80
15880;BME280;61999;51.514;14.614;2022-12-07T02:13:30;99660.16;;;-4.06;72.55
15880;BME280;61999;51.514;14.614;2022-12-07T02:16:17;99660.63;;;-5.43;76.06
15880;BME280;61999;51.514;14.614;2022-12-07T02:19:03;99656.09;;;-4.90;75.43
15880;BME280;61999;51.514;14.614;2022-12-07T02:21:46;99648.41;;;-4.91;75.32
15880;BME280;61999;51.514;14.614;2022-12-07T02:24:35;99647.78;;;-5.01;74.07
15880;BME280;61999;51.514;14.614;2022-12-07T02:27:38;99653.00;;;-5.04;74.69
15880;BME280;61999;51.514;14.614;2022-12-07T02:30:13;99648.31;;;-4.48;74.61
15880;BME280;61999;51.514;14.614;2022-12-07T02:32:49;99652.88;;;-4.61;73.77
15880;BME280;61999;51.514;14.614;2022-12-07T02:35:25;99655.16;;;-5.68;77.37
15880;BME280;61999;51.514;14.614;2022-12-07T02:38:04;99652.84;;;-5.38;77.56
15880;BME280;61999;51.514;14.614;2022-12-07T02:40:42;99645.66;;;-5.64;77.47
15880;BME280;61999;51.514;14.614;2022-12-07T02:43:16;99660.69;;;-5.46;77.98
15880;BME280;61999;51.514;14.614;2022-12-07T02:45:50;99645.31;;;-5.06;77.14
15880;BME280;61999;51.514;14.614;2022-12-07T02:48:20;99646.31;;;-4.74;75.63
15880;BME280;61999;51.514;14.614;2022-12-07T02:50:50;99637.88;;;-4.42;74.79
15880;BME280;61999;51.514;14.614;2022-12-07T02:53:32;99641.22;;;-5.14;76.00
15880;BME280;61999;51.514;14.614;2022-12-07T02:56:07;99644.13;;;-4.91;75.83
15880;BME280;61999;51.514;14.614;2022-12-07T02:58:51;99644.84;;;-4.84;74.21
15880;BME280;61999;51.514;14.614;2022-12-07T03:01:31;99630.19;;;-4.81;74.46
15880;BME280;61999;51.514;14.614;2022-12-07T03:04:20;99640.41;;;-5.60;74.43
15880;BME280;61999;51.514;14.614;2022-12-07T03:07:00;99645.47;;;-5.55;74.57
15880;BME280;61999;51.514;14.614;2022-12-07T03:09:44;99645.94;;;-5.80;75.66
15880;BME280;61999;51.514;14.614;2022-12-07T03:12:24;99634.94;;;-5.86;74.16
15880;BME280;61999;51.514;14.614;2022-12-07T03:15:03;99634.25;;;-5.51;74.36
15880;BME280;61999;51.514;14.614;2022-12-07T03:38:13;99644.19;;;-5.78;71.73
15880;BME280;61999;51.514;14.614;2022-12-07T03:40:59;99649.13;;;-6.13;71.10
15880;BME280;61999;51.514;14.614;2022-12-07T03:43:29;99645.72;;;-5.67;71.41
15880;BME280;61999;51.514;14.614;2022-12-07T03:46:10;99644.69;;;-4.78;69.57
15880;BME280;61999;51.514;14.614;2022-12-07T03:48:53;99631.22;;;-5.70;69.23
15880;BME280;61999;51.514;14.614;2022-12-07T03:51:31;99629.31;;;-5.18;68.94
15880;BME280;61999;51.514;14.614;2022-12-07T03:54:11;99626.84;;;-5.23;69.19
15880;BME280;61999;51.514;14.614;2022-12-07T03:56:44;99615.13;;;-4.96;68.54
15880;BME280;61999;51.514;14.614;2022-12-07T03:59:15;99606.19;;;-4.11;67.09
15880;BME280;61999;51.514;14.614;2022-12-07T04:01:44;99604.69;;;-3.85;65.75
15880;BME280;61999;51.514;14.614;2022-12-07T04:04:12;99603.84;;;-3.55;64.64
15880;BME280;61999;51.514;14.614;2022-12-07T04:06:40;99600.25;;;-4.83;66.26
15880;BME280;61999;51.514;14.614;2022-12-07T04:09:10;99591.78;;;-5.26;67.95
15880;BME280;61999;51.514;14.614;2022-12-07T04:11:38;99590.09;;;-5.67;70.43
15880;BME280;61999;51.514;14.614;2022-12-07T04:14:06;99591.47;;;-6.44;72.47
15880;BME280;61999;51.514;14.614;2022-12-07T04:16:47;99591.72;;;-6.57;74.22
15880;BME280;61999;51.514;14.614;2022-12-07T04:19:16;99594.72;;;-6.87;75.43
15880;BME280;61999;51.514;14.614;2022-12-07T04:21:45;99589.56;;;-6.82;75.98
15880;BME280;61999;51.514;14.614;2022-12-07T04:24:15;99584.19;;;-6.67;75.83
15880;BME280;61999;51.514;14.614;2022-12-07T04:26:45;99586.56;;;-6.56;75.59
15880;BME280;61999;51.514;14.614;2022-12-07T04:29:14;99590.94;;;-6.63;75.07
15880;BME280;61999;51.514;14.614;2022-12-07T04:31:43;99596.66;;;-6.99;75.98
15880;BME280;61999;51.514;14.614;2022-12-07T04:34:16;99585.22;;;-6.80;76.37
15880;BME280;61999;51.514;14.614;2022-12-07T04:36:46;99589.31;;;-6.67;76.38
15880;BME280;61999;51.514;14.614;2022-12-07T04:39:20;99584.75;;;-6.49;75.49
15880;BME280;61999;51.514;14.614;2022-12-07T04:41:49;99587.41;;;-6.57;75.77
15880;BME280;61999;51.514;14.614;2022-12-07T04:44:18;99572.47;;;-6.32;74.62
15880;BME280;61999;51.514;14.614;2022-12-07T04:46:47;99575.56;;;-6.63;75.08
15880;BME280;61999;51.514;14.614;2022-12-07T04:57:31;99564.03;;;-6.91;77.82
15880;BME280;61999;51.514;14.614;2022-12-07T04:59:59;99562.41;;;-6.95;78.38
15880;BME280;61999;51.514;14.614;2022-12-07T05:02:27;99557.00;;;-6.77;77.69
15880;BME280;61999;51.514;14.614;2022-12-07T05:04:55;99556.25;;;-6.82;78.32
15880;BME280;61999;51.514;14.614;2022-12-07T05:32:46;99554.84;;;-7.65;85.82
15880;BME280;61999;51.514;14.614;2022-12-07T05:35:15;99555.03;;;-7.80;85.66
15880;BME280;61999;51.514;14.614;2022-12-07T05:37:43;99557.41;;;-7.66;86.33
15880;BME280;61999;51.514;14.614;2022-12-07T05:40:13;99544.50;;;-7.56;85.57
15880;BME280;61999;51.514;14.614;2022-12-07T05:42:42;99547.69;;;-7.38;85.40
15880;BME280;61999;51.514;14.614;2022-12-07T05:45:11;99540.91;;;-7.42;85.23
15880;BME280;61999;51.514;14.614;2022-12-07T05:47:39;99539.84;;;-7.29;84.94
15880;BME280;61999;51.514;14.614;2022-12-07T05:50:09;99532.22;;;-7.32;84.94
15880;BME280;61999;51.514;14.614;2022-12-07T05:52:37;99535.47;;;-7.21;84.65
15880;BME280;61999;51.514;14.614;2022-12-07T05:55:06;99527.75;;;-7.18;83.90
15880;BME280;61999;51.514;14.614;2022-12-07T05:57:34;99522.72;;;-7.22;83.79
15880;BME280;61999;51.514;14.614;2022-12-07T06:00:04;99520.31;;;-7.33;84.02
15880;BME280;61999;51.514;14.614;2022-12-07T06:02:31;99521.28;;;-7.42;84.77
15880;BME280;61999;51.514;14.614;2022-12-07T06:04:59;99520.25;;;-7.30;84.12
15880;BME280;61999;51.514;14.614;2022-12-07T06:07:29;99515.94;;;-7.26;84.24
15880;BME280;61999;51.514;14.614;2022-12-07T06:09:57;99517.50;;;-7.16;84.02
15880;BME280;61999;51.514;14.614;2022-12-07T06:12:25;99510.00;;;-7.30;84.06
15880;BME280;61999;51.514;14.614;2022-12-07T06:15:01;99515.78;;;-7.16;83.75
15880;BME280;61999;51.514;14.614;2022-12-07T06:17:31;99519.59;;;-7.46;83.78
15880;BME280;61999;51.514;14.614;2022-12-07T06:19:59;99511.69;;;-7.29;84.52
15880;BME280;61999;51.514;14.614;2022-12-07T06:22:28;99514.09;;;-7.17;83.42
15880;BME280;61999;51.514;14.614;2022-12-07T06:24:56;99515.31;;;-7.42;83.74
15880;BME280;61999;51.514;14.614;2022-12-07T06:27:24;99512.22;;;-7.07;84.05
15880;BME280;61999;51.514;14.614;2022-12-07T06:29:52;99506.16;;;-7.01;82.79
15880;BME280;61999;51.514;14.614;2022-12-07T06:32:20;99499.53;;;-7.15;83.06
15880;BME280;61999;51.514;14.614;2022-12-07T06:34:48;99499.94;;;-6.85;82.32
15880;BME280;61999;51.514;14.614;2022-12-07T06:37:16;99491.63;;;-6.99;81.27
15880;BME280;61999;51.514;14.614;2022-12-07T06:39:50;99507.09;;;-7.07;82.20
15880;BME280;61999;51.514;14.614;2022-12-07T06:42:18;99502.72;;;-6.99;81.63
15880;BME280;61999;51.514;14.614;2022-12-07T06:44:46;99499.63;;;-7.21;82.54
15880;BME280;61999;51.514;14.614;2022-12-07T06:47:14;99491.31;;;-6.82;81.89
15880;BME280;61999;51.514;14.614;2022-12-07T06:50:03;99490.56;;;-6.89;81.66
15880;BME280;61999;51.514;14.614;2022-12-07T06:52:32;99487.19;;;-6.91;81.03
15880;BME280;61999;51.514;14.614;2022-12-07T06:55:02;99485.56;;;-6.97;81.33
15880;BME280;61999;51.514;14.614;2022-12-07T06:57:30;99484.84;;;-7.03;81.23
15880;BME280;61999;51.514;14.614;2022-12-07T06:59:58;99482.16;;;-6.97;81.64
15880;BME280;61999;51.514;14.614;2022-12-07T07:02:26;99481.00;;;-7.32;81.75
15880;BME280;61999;51.514;14.614;2022-12-07T07:04:54;99479.75;;;-7.05;82.00
15880;BME280;61999;51.514;14.614;2022-12-07T07:07:22;99485.25;;;-7.30;82.41
15880;BME280;61999;51.514;14.614;2022-12-07T07:09:50;99496.75;;;-6.99;82.20
15880;BME280;61999;51.514;14.614;2022-12-07T07:12:20;99485.19;;;-7.25;82.88
15880;BME280;61999;51.514;14.614;2022-12-07T07:14:47;99480.13;;;-7.30;83.45
15880;BME280;61999;51.514;14.614;2022-12-07T07:17:16;99484.25;;;-7.21;83.58
15880;BME280;61999;51.514;14.614;2022-12-07T07:19:44;99485.28;;;-7.33;84.00
15880;BME280;61999;51.514;14.614;2022-12-07T07:22:11;99494.25;;;-7.61;84.79
15880;BME280;61999;51.514;14.614;2022-12-07T07:24:39;99503.47;;;-7.49;85.06
15880;BME280;61999;51.514;14.614;2022-12-07T07:27:07;99488.56;;;-7.83;86.96
15880;BME280;61999;51.514;14.614;2022-12-07T07:29:37;99502.19;;;-7.80;86.65
15880;BME280;61999;51.514;14.614;2022-12-07T07:32:05;99491.72;;;-7.66;87.24
15880;BME280;61999;51.514;14.614;2022-12-07T07:34:34;99495.22;;;-7.70;87.32
15880;BME280;61999;51.514;14.614;2022-12-07T07:37:02;99495.38;;;-7.82;87.87
15880;BME280;61999;51.514;14.614;2022-12-07T07:39:30;99493.53;;;-7.74;88.20
15880;BME280;61999;51.514;14.614;2022-12-07T07:41:58;99492.38;;;-7.50;88.53
15880;BME280;61999;51.514;14.614;2022-12-07T07:44:26;99493.72;;;-7.86;87.94
15880;BME280;61999;51.514;14.614;2022-12-07T07:46:58;99486.03;;;-7.85;89.36
15880;BME280;61999;51.514;14.614;2022-12-07T07:49:26;99497.69;;;-7.64;89.16
15880;BME280;61999;51.514;14.614;2022-12-07T07:51:54;99492.00;;;-7.84;88.56
15880;BME280;61999;51.514;14.614;2022-12-07T07:54:22;99492.69;;;-7.75;89.58
15880;BME280;61999;51.514;14.614;2022-12-07T07:56:51;99508.94;;;-7.76;89.17
15880;BME280;61999;51.514;14.614;2022-12-07T07:59:20;99499.25;;;-7.54;89.73
15880;BME280;61999;51.514;14.614;2022-12-07T08:01:48;99496.81;;;-7.63;88.83
15880;BME280;61999;51.514;14.614;2022-12-07T08:04:17;99502.84;;;-7.65;88.80
15880;BME280;61999;51.514;14.614;2022-12-07T08:06:45;99508.63;;;-7.51;88.84
15880;BME280;61999;51.514;14.614;2022-12-07T08:09:13;99495.81;;;-7.51;88.89
15880;BME280;61999;51.514;14.614;2022-12-07T08:11:44;99486.97;;;-7.32;88.72
15880;BME280;61999;51.514;14.614;2022-12-07T08:14:12;99496.19;;;-7.80;89.50
15880;BME280;61999;51.514;14.614;2022-12-07T08:16:40;99484.94;;;-7.68;89.64
15880;BME280;61999;51.514;14.614;2022-12-07T08:19:08;99477.47;;;-7.82;90.10
15880;BME280;61999;51.514;14.614;2022-12-07T08:21:37;99488.34;;;-7.66;90.24
15880;BME280;61999;51.514;14.614;2022-12-07T08:24:06;99487.41;;;-7.61;90.63
15880;BME280;61999;51.514;14.614;2022-12-07T08:26:34;99489.66;;;-7.39;90.57
15880;BME280;61999;51.514;14.614;2022-12-07T08:29:02;99487.84;;;-7.31;89.67
15880;BME280;61999;51.514;14.614;2022-12-07T08:31:30;99479.53;;;-7.48;89.89
15880;BME280;61999;51.514;14.614;2022-12-07T08:33:59;99485.50;;;-7.45;89.85
15880;BME280;61999;51.514;14.614;2022-12-07T08:36:27;99487.75;;;-7.25;90.07
15880;BME280;61999;51.514;14.614;2022-12-07T08:38:56;99490.38;;;-7.28;90.31
15880;BME280;61999;51.514;14.614;2022-12-07T08:41:44;99487.41;;;-7.03;89.49
15880;BME280;61999;51.514;14.614;2022-12-07T08:44:12;99483.25;;;-7.11;88.84
15880;BME280;61999;51.514;14.614;2022-12-07T08:46:45;99487.84;;;-6.80;88.58
15880;BME280;61999;51.514;14.614;2022-12-07T08:49:20;99483.66;;;-6.84;87.83
15880;BME280;61999;51.514;14.614;2022-12-07T08:51:51;99489.13;;;-7.02;88.22
15880;BME280;61999;51.514;14.614;2022-12-07T08:54:21;99484.00;;;-7.02;88.86
15880;BME280;61999;51.514;14.614;2022-12-07T08:56:50;99484.25;;;-7.21;88.92
15880;BME280;61999;51.514;14.614;2022-12-07T08:59:23;99478.66;;;-6.90;88.90
15880;BME280;61999;51.514;14.614;2022-12-07T09:01:51;99483.63;;;-6.81;88.21
15880;BME280;61999;51.514;14.614;2022-12-07T09:04:19;99483.22;;;-7.09;88.54
15880;BME280;61999;51.514;14.614;2022-12-07T09:06:48;99483.56;;;-6.78;88.16
15880;BME280;61999;51.514;14.614;2022-12-07T09:09:16;99488.91;;;-6.90;88.14
15880;BME280;61999;51.514;14.614;2022-12-07T09:11:46;99488.75;;;-6.81;87.97
15880;BME280;61999;51.514;14.614;2022-12-07T09:14:14;99493.97;;;-6.87;87.85
15880;BME280;61999;51.514;14.614;2022-12-07T09:16:42;99489.72;;;-6.88;87.99
15880;BME280;61999;51.514;14.614;2022-12-07T09:19:10;99485.34;;;-6.83;88.44
15880;BME280;61999;51.514;14.614;2022-12-07T09:21:38;99478.72;;;-6.93;88.51
15880;BME280;61999;51.514;14.614;2022-12-07T09:24:06;99482.97;;;-6.46;88.27
15880;BME280;61999;51.514;14.614;2022-12-07T09:26:35;99476.28;;;-6.53;87.04
15880;BME280;61999;51.514;14.614;2022-12-07T09:29:07;99483.25;;;-6.59;87.06
15880;BME280;61999;51.514;14.614;2022-12-07T09:31:37;99476.66;;;-6.74;87.07
15880;BME280;61999;51.514;14.614;2022-12-07T09:34:05;99473.00;;;-6.59;87.42
15880;BME280;61999;51.514;14.614;2022-12-07T09:36:34;99479.75;;;-6.57;87.04
15880;BME280;61999;51.514;14.614;2022-12-07T09:39:02;99476.28;;;-6.08;86.11
15880;BME280;61999;51.514;14.614;2022-12-07T09:41:32;99482.78;;;-6.35;85.28
15880;BME280;61999;51.514;14.614;2022-12-07T09:44:08;99471.16;;;-6.09;84.82
15880;BME280;61999;51.514;14.614;2022-12-07T09:46:42;99473.06;;;-6.64;85.80
15880;BME280;61999;51.514;14.614;2022-12-07T09:49:14;99480.03;;;-6.71;86.37
15880;BME280;61999;51.514;14.614;2022-12-07T09:51:45;99476.53;;;-6.67;86.91
15880;BME280;61999;51.514;14.614;2022-12-07T09:54:15;99469.63;;;-6.18;86.32
15880;BME280;61999;51.514;14.614;2022-12-07T09:56:44;99467.56;;;-6.44;85.85
15880;BME280;61999;51.514;14.614;2022-12-07T09:59:17;99453.94;;;-6.46;86.11
15880;BME280;61999;51.514;14.614;2022-12-07T10:01:49;99462.00;;;-6.23;85.99
15880;BME280;61999;51.514;14.614;2022-12-07T10:04:21;99454.78;;;-6.02;85.24
15880;BME280;61999;51.514;14.614;2022-12-07T10:06:50;99466.72;;;-6.01;84.39
15880;BME280;61999;51.514;14.614;2022-12-07T10:09:20;99449.75;;;-6.08;84.75
15880;BME280;61999;51.514;14.614;2022-12-07T10:12:10;99456.00;;;-5.80;84.26
15880;BME280;61999;51.514;14.614;2022-12-07T10:14:53;99457.44;;;-6.08;84.19
15880;BME280;61999;51.514;14.614;2022-12-07T10:17:40;99446.56;;;-6.20;84.88
15880;BME280;61999;51.514;14.614;2022-12-07T10:20:19;99455.47;;;-5.55;83.97
15880;BME280;61999;51.514;14.614;2022-12-07T10:23:00;99440.41;;;-5.71;82.83
15880;BME280;61999;51.514;14.614;2022-12-07T10:25:32;99448.84;;;-5.65;82.67
15880;BME280;61999;51.514;14.614;2022-12-07T10:28:16;99441.56;;;-5.84;82.41
15880;BME280;61999;51.514;14.614;2022-12-07T10:30:55;99450.78;;;-5.77;83.58
15880;BME280;61999;51.514;14.614;2022-12-07T10:33:34;99441.53;;;-5.45;83.14
15880;BME280;61999;51.514;14.614;2022-12-07T10:36:21;99441.03;;;-5.23;81.82
15880;BME280;61999;51.514;14.614;2022-12-07T10:38:52;99448.91;;;-5.31;80.46
15880;BME280;61999;51.514;14.614;2022-12-07T10:41:21;99441.88;;;-4.56;79.72
15880;BME280;61999;51.514;14.614;2022-12-07T10:43:52;99442.03;;;-4.95;79.39
15880;BME280;61999;51.514;14.614;2022-12-07T10:47:02;99447.56;;;-5.10;79.69
15880;BME280;61999;51.514;14.614;2022-12-07T10:50:17;99434.97;;;-5.21;80.55
15880;BME280;61999;51.514;14.614;2022-12-07T10:53:16;99445.97;;;-4.49;80.20
15880;BME280;61999;51.514;14.614;2022-12-07T10:56:07;99437.03;;;-4.67;79.65
15880;BME280;61999;51.514;14.614;2022-12-07T10:58:58;99437.19;;;-4.73;78.34
15880;BME280;61999;51.514;14.614;2022-12-07T11:01:37;99433.06;;;-4.16;77.96
15880;BME280;61999;51.514;14.614;2022-12-07T11:04:33;99424.19;;;-4.68;76.41
15880;BME280;61999;51.514;14.614;2022-12-07T11:07:14;99441.31;;;-4.67;76.71
15880;BME280;61999;51.514;14.614;2022-12-07T11:10:02;99434.00;;;-4.83;76.28
15880;BME280;61999;51.514;14.614;2022-12-07T11:12:55;99436.44;;;-4.76;76.31
15880;BME280;61999;51.514;14.614;2022-12-07T11:15:35;99439.13;;;-5.15;76.66
15880;BME280;61999;51.514;14.614;2022-12-07T11:18:15;99436.66;;;-4.86;76.80
15880;BME280;61999;51.514;14.614;2022-12-07T11:20:56;99431.72;;;-4.93;77.55
15880;BME280;61999;51.514;14.614;2022-12-07T11:23:48;99426.94;;;-5.07;77.11
15880;BME280;61999;51.514;14.614;2022-12-07T11:26:38;99413.22;;;-4.73;77.40
15880;BME280;61999;51.514;14.614;2022-12-07T11:29:28;99412.50;;;-3.88;75.51
15880;BME280;61999;51.514;14.614;2022-12-07T11:32:10;99429.56;;;-4.45;73.67
15880;BME280;61999;51.514;14.614;2022-12-07T11:34:54;99418.03;;;-4.31;73.69
15880;BME280;61999;51.514;14.614;2022-12-07T11:37:33;99403.94;;;-3.34;72.02
15880;BME280;61999;51.514;14.614;2022-12-07T11:40:18;99401.47;;;-3.10;69.43
15880;BME280;61999;51.514;14.614;2022-12-07T11:42:55;99401.91;;;-2.72;66.85
15880;BME280;61999;51.514;14.614;2022-12-07T11:45:29;99400.41;;;-2.55;66.13
15880;BME280;61999;51.514;14.614;2022-12-07T11:48:02;99391.97;;;-3.35;67.71
15880;BME280;61999;51.514;14.614;2022-12-07T11:50:37;99417.69;;;-3.07;68.11
15880;BME280;61999;51.514;14.614;2022-12-07T11:53:17;99397.34;;;-2.66;68.24
15880;BME280;61999;51.514;14.614;2022-12-07T11:55:57;99405.34;;;-2.48;66.09
15880;BME280;61999;51.514;14.614;2022-12-07T11:58:48;99401.19;;;-2.52;65.28
15880;BME280;61999;51.514;14.614;2022-12-07T12:01:35;99400.13;;;-3.49;67.63
15880;BME280;61999;51.514;14.614;2022-12-07T12:04:26;99414.97;;;-3.55;67.83
15880;BME280;61999;51.514;14.614;2022-12-07T12:06:56;99413.16;;;-3.00;67.63
15880;BME280;61999;51.514;14.614;2022-12-07T12:09:51;99412.66;;;-2.85;67.12
15880;BME280;61999;51.514;14.614;2022-12-07T12:13:12;99399.47;;;-3.27;69.05
15880;BME280;61999;51.514;14.614;2022-12-07T12:16:46;99421.25;;;-4.23;68.96
15880;BME280;61999;51.514;14.614;2022-12-07T12:19:32;99414.59;;;-4.62;69.94
15880;BME280;61999;51.514;14.614;2022-12-07T12:22:12;99401.41;;;-4.20;69.83
15880;BME280;61999;51.514;14.614;2022-12-07T12:24:45;99399.31;;;-3.77;68.22
15880;BME280;61999;51.514;14.614;2022-12-07T12:27:23;99404.56;;;-3.80;68.61
15880;BME280;61999;51.514;14.614;2022-12-07T12:29:59;99415.88;;;-4.16;68.96
15880;BME280;61999;51.514;14.614;2022-12-07T12:32:38;99417.72;;;-4.50;68.58
15880;BME280;61999;51.514;14.614;2022-12-07T12:35:28;99406.09;;;-4.03;69.87
15880;BME280;61999;51.514;14.614;2022-12-07T12:38:28;99403.94;;;-4.18;69.88
15880;BME280;61999;51.514;14.614;2022-12-07T12:40:57;99401.38;;;-3.88;68.60
15880;BME280;61999;51.514;14.614;2022-12-07T12:43:55;99400.16;;;-4.05;68.57
15880;BME280;61999;51.514;14.614;2022-12-07T12:46:53;99404.75;;;-3.32;67.42
15880;BME280;61999;51.514;14.614;2022-12-07T12:50:11;99403.41;;;-3.43;65.74
15880;BME280;61999;51.514;14.614;2022-12-07T12:53:15;99403.25;;;-3.12;65.80
15880;BME280;61999;51.514;14.614;2022-12-07T12:56:13;99396.19;;;-3.32;66.54
15880;BME280;61999;51.514;14.614;2022-12-07T12:58:47;99398.03;;;-3.36;66.59
15880;BME280;61999;51.514;14.614;2022-12-07T13:01:44;99403.09;;;-3.34;66.58
15880;BME280;61999;51.514;14.614;2022-12-07T13:04:38;99417.78;;;-3.36;66.19
15880;BME280;61999;51.514;14.614;2022-12-07T13:07:53;99406.16;;;-3.21;66.18
15880;BME280;61999;51.514;14.614;2022-12-07T13:10:38;99405.53;;;-2.78;64.83
15880;BME280;61999;51.514;14.614;2022-12-07T13:13:32;99400.06;;;-2.45;62.85
15880;BME280;61999;51.514;14.614;2022-12-07T13:16:40;99407.34;;;-2.57;63.48
15880;BME280;61999;51.514;14.614;2022-12-07T13:20:06;99408.50;;;-3.69;66.01
15880;BME280;61999;51.514;14.614;2022-12-07T13:22:48;99409.72;;;-3.80;66.80
15880;BME280;61999;51.514;14.614;2022-12-07T13:25:30;99401.38;;;-3.88;68.33
15880;BME280;61999;51.514;14.614;2022-12-07T13:28:09;99410.44;;;-3.49;66.70
15880;BME280;61999;51.514;14.614;2022-12-07T13:30:53;99398.97;;;-3.38;66.01
15880;BME280;61999;51.514;14.614;2022-12-07T13:33:28;99400.63;;;-3.92;66.70
15880;BME280;61999;51.514;14.614;2022-12-07T13:35:58;99404.81;;;-3.08;65.19
15880;BME280;61999;51.514;14.614;2022-12-07T13:38:30;99402.31;;;-3.63;65.55
15880;BME280;61999;51.514;14.614;2022-12-07T13:41:03;99393.69;;;-2.84;66.19
15880;BME280;61999;51.514;14.614;2022-12-07T13:43:41;99389.78;;;-2.70;64.32
15880;BME280;61999;51.514;14.614;2022-12-07T13:46:11;99385.16;;;-3.11;65.55
15880;BME280;61999;51.514;14.614;2022-12-07T13:48:46;99398.19;;;-3.69;67.25
15880;BME280;61999;51.514;14.614;2022-12-07T13:51:23;99401.75;;;-3.44;66.75
15880;BME280;61999;51.514;14.614;2022-12-07T13:53:54;99394.75;;;-2.89;64.77
15880;BME280;61999;51.514;14.614;2022-12-07T13:56:28;99402.09;;;-4.13;66.95
15880;BME280;61999;51.514;14.614;2022-12-07T13:59:00;99398.84;;;-3.62;67.35
15880;BME280;61999;51.514;14.614;2022-12-07T14:01:30;99407.56;;;-4.25;68.25
15880;BME280;61999;51.514;14.614;2022-12-07T14:04:18;99416.59;;;-4.10;69.24
15880;BME280;61999;51.514;14.614;2022-12-07T14:06:50;99410.34;;;-3.74;68.12
15880;BME280;61999;51.514;14.614;2022-12-07T14:09:20;99397.97;;;-3.61;67.69
15880;BME280;61999;51.514;14.614;2022-12-07T14:11:52;99399.81;;;-3.94;67.50
15880;BME280;61999;51.514;14.614;2022-12-07T14:14:23;99398.16;;;-4.56;69.78
15880;BME280;61999;51.514;14.614;2022-12-07T14:16:59;99398.25;;;-4.59;70.42
15880;BME280;61999;51.514;14.614;2022-12-07T14:19:52;99404.53;;;-4.40;70.24
15880;BME280;61999;51.514;14.614;2022-12-07T14:22:31;99407.47;;;-4.22;70.14
15880;BME280;61999;51.514;14.614;2022-12-07T14:25:23;99399.78;;;-3.64;68.87
15880;BME280;61999;51.514;14.614;2022-12-07T14:27:55;99404.13;;;-3.95;68.08
15880;BME280;61999;51.514;14.614;2022-12-07T14:30:28;99408.06;;;-4.73;70.60